createdAt,value
2022-08-04T00:00:03.161Z,21.42
2022-08-04T00:01:03.164Z,21.49
2022-08-04T00:02:03.181Z,21.45
2022-08-04T00:03:03.122Z,21.51
2022-08-04T00:04:03.110Z,21.48
2022-08-04T00:05:03.109Z,21.51
2022-08-04T00:06:03.085Z,21.51
2022-08-04T00:07:03.079Z,21.48
2022-08-04T00:08:03.056Z,21.42
2022-08-04T00:09:03.049Z,21.36
2022-08-04T00:10:03.028Z,21.43
2022-08-04T00:11:03.028Z,21.33
2022-08-04T00:12:03.000Z,21.31
2022-08-04T00:13:02.991Z,21.22
2022-08-04T00:14:03.873Z,21.33
2022-08-04T00:15:02.968Z,21.21
2022-08-04T00:16:02.947Z,21.24
2022-08-04T00:17:02.946Z,21.15
2022-08-04T00:18:02.920Z,21.12
2022-08-04T00:19:02.917Z,21.26
2022-08-04T00:20:02.898Z,21.21
2022-08-04T00:21:02.884Z,21.11
2022-08-04T00:22:02.869Z,21.18
2022-08-04T00:23:02.862Z,21.19
2022-08-04T00:24:10.511Z,21.22
2022-08-04T00:25:02.832Z,21.09
2022-08-04T00:26:02.818Z,21.15
2022-08-04T00:27:02.813Z,21.09
2022-08-04T00:28:02.793Z,21.13
2022-08-04T00:29:02.781Z,21.06
2022-08-04T00:30:02.765Z,21.09
2022-08-04T00:31:02.753Z,21.06
2022-08-04T00:32:02.736Z,21.08
2022-08-04T00:33:02.727Z,21.01
2022-08-04T00:34:02.715Z,20.96
2022-08-04T00:35:02.712Z,20.94
2022-08-04T00:36:02.684Z,20.93
2022-08-04T00:37:02.674Z,20.85
2022-08-04T00:38:02.658Z,20.82
2022-08-04T00:39:02.683Z,20.78
2022-08-04T00:40:02.636Z,20.73
2022-08-04T00:41:02.622Z,20.81
2022-08-04T00:42:02.609Z,20.75
2022-08-04T00:43:02.600Z,20.73
2022-08-04T00:44:02.575Z,20.71
2022-08-04T00:45:02.573Z,20.76
2022-08-04T00:46:15.216Z,20.71
2022-08-04T00:47:02.538Z,20.72
2022-08-04T00:48:02.524Z,20.78
2022-08-04T00:49:02.519Z,20.78
2022-08-04T00:50:02.496Z,20.72
2022-08-04T00:51:02.484Z,20.64
2022-08-04T00:52:32.364Z,20.75
2022-08-04T00:53:02.460Z,20.71
2022-08-04T00:54:02.445Z,20.69
2022-08-04T00:55:05.445Z,20.64
2022-08-04T00:56:03.442Z,20.68
2022-08-04T00:57:02.407Z,20.68
2022-08-04T00:58:02.390Z,20.54
2022-08-04T00:59:02.376Z,20.56
2022-08-04T01:00:02.366Z,20.54
2022-08-04T01:01:02.435Z,20.57
2022-08-04T01:02:02.337Z,20.44
2022-08-04T01:03:02.328Z,20.37
2022-08-04T01:04:02.310Z,20.33
2022-08-04T01:05:02.300Z,20.23
2022-08-04T01:06:02.283Z,20.16
2022-08-04T01:07:02.268Z,20.12
2022-08-04T01:08:02.252Z,20.00
2022-08-04T01:09:02.236Z,19.98
2022-08-04T01:10:02.225Z,20.02
2022-08-04T01:11:02.210Z,19.98
2022-08-04T01:12:02.201Z,19.89
2022-08-04T01:13:02.184Z,19.98
2022-08-04T01:14:02.168Z,19.90
2022-08-04T01:15:02.155Z,19.92
2022-08-04T01:16:02.153Z,20.01
2022-08-04T01:17:02.132Z,19.90
2022-08-04T01:18:02.124Z,19.95
2022-08-04T01:19:02.107Z,20.04
2022-08-04T01:20:02.095Z,20.13
2022-08-04T01:21:02.080Z,20.02
2022-08-04T01:22:02.068Z,20.00
2022-08-04T01:23:02.051Z,20.01
2022-08-04T01:24:02.034Z,20.10
2022-08-04T01:25:02.394Z,20.12
2022-08-04T01:26:02.011Z,20.02
2022-08-04T01:27:01.992Z,20.08
2022-08-04T01:28:01.988Z,20.12
2022-08-04T01:29:01.975Z,20.00
2022-08-04T01:30:01.967Z,20.00
2022-08-04T01:31:01.941Z,20.01
2022-08-04T01:32:01.947Z,20.00
2022-08-04T01:33:01.917Z,20.07
2022-08-04T01:34:03.633Z,20.01
2022-08-04T01:35:01.901Z,20.02
2022-08-04T01:36:01.937Z,20.04
2022-08-04T01:37:01.862Z,20.01
2022-08-04T01:38:01.866Z,20.04
2022-08-04T01:39:01.994Z,19.98
2022-08-04T01:40:01.830Z,20.08
2022-08-04T01:41:01.816Z,20.13
2022-08-04T01:42:01.803Z,20.07
2022-08-04T01:43:01.793Z,20.02
2022-08-04T01:44:01.784Z,19.98
2022-08-04T01:45:01.761Z,20.02
2022-08-04T01:46:01.754Z,19.97
2022-08-04T01:47:01.734Z,19.95
2022-08-04T01:48:01.724Z,19.95
2022-08-04T01:49:01.706Z,19.94
2022-08-04T01:50:01.698Z,20.04
2022-08-04T01:51:01.677Z,19.90
2022-08-04T01:52:01.672Z,19.97
2022-08-04T01:53:01.671Z,19.95
2022-08-04T01:54:01.642Z,19.95
2022-08-04T01:55:01.623Z,19.94
2022-08-04T01:56:01.624Z,19.85
2022-08-04T01:57:01.600Z,19.92
2022-08-04T01:58:01.590Z,19.98
2022-08-04T01:59:01.579Z,19.89
2022-08-04T02:00:01.582Z,19.87
2022-08-04T02:01:01.615Z,19.80
2022-08-04T02:02:01.701Z,19.82
2022-08-04T02:03:01.611Z,19.87
2022-08-04T02:04:21.834Z,19.78
2022-08-04T02:05:01.494Z,19.64
2022-08-04T02:06:03.082Z,19.53
2022-08-04T02:07:01.466Z,19.45
2022-08-04T02:08:01.461Z,19.31
2022-08-04T02:09:01.448Z,19.27
2022-08-04T02:10:01.440Z,19.32
2022-08-04T02:11:01.414Z,19.21
2022-08-04T02:12:01.404Z,19.28
2022-08-04T02:13:01.385Z,19.28
2022-08-04T02:14:01.377Z,19.25
2022-08-04T02:15:01.362Z,19.28
2022-08-04T02:16:01.347Z,19.25
2022-08-04T02:17:01.329Z,19.31
2022-08-04T02:18:01.320Z,19.28
2022-08-04T02:19:01.302Z,19.30
2022-08-04T02:20:01.295Z,19.31
2022-08-04T02:21:01.283Z,19.23
2022-08-04T02:22:01.274Z,19.47
2022-08-04T02:23:01.255Z,19.45
2022-08-04T02:24:01.244Z,19.45
2022-08-04T02:25:01.230Z,19.35
2022-08-04T02:26:01.218Z,19.45
2022-08-04T02:27:01.202Z,19.45
2022-08-04T02:28:01.265Z,19.49
2022-08-04T02:29:01.167Z,19.62
2022-08-04T02:30:01.161Z,19.53
2022-08-04T02:31:01.141Z,19.53
2022-08-04T02:32:01.137Z,19.55
2022-08-04T02:33:01.116Z,19.55
2022-08-04T02:34:01.113Z,19.57
2022-08-04T02:35:01.092Z,19.50
2022-08-04T02:36:02.224Z,19.46
2022-08-04T02:37:01.067Z,19.46
2022-08-04T02:38:01.055Z,19.42
2022-08-04T02:39:01.127Z,19.50
2022-08-04T02:40:01.025Z,19.43
2022-08-04T02:41:01.011Z,19.47
2022-08-04T02:42:01.003Z,19.60
2022-08-04T02:43:00.982Z,19.49
2022-08-04T02:44:00.982Z,19.61
2022-08-04T02:45:00.957Z,19.64
2022-08-04T02:46:00.949Z,19.53
2022-08-04T02:47:00.929Z,19.55
2022-08-04T02:48:25.196Z,19.55
2022-08-04T02:49:00.899Z,19.52
2022-08-04T02:50:00.889Z,19.49
2022-08-04T02:51:00.878Z,19.45
2022-08-04T02:52:00.865Z,19.38
2022-08-04T02:53:00.859Z,19.40
2022-08-04T02:54:00.843Z,19.40
2022-08-04T02:55:00.825Z,19.43
2022-08-04T02:56:00.812Z,19.32
2022-08-04T02:57:00.802Z,19.35
2022-08-04T02:58:00.784Z,19.35
2022-08-04T02:59:00.768Z,19.43
2022-08-04T03:00:00.756Z,19.32
2022-08-04T03:01:00.873Z,19.32
2022-08-04T03:02:00.731Z,19.38
2022-08-04T03:03:00.717Z,19.23
2022-08-04T03:04:00.702Z,19.25
2022-08-04T03:05:00.705Z,19.09
2022-08-04T03:06:01.769Z,19.12
2022-08-04T03:07:00.657Z,19.07
2022-08-04T03:08:00.659Z,18.94
2022-08-04T03:09:00.637Z,18.93
2022-08-04T03:10:00.630Z,18.87
2022-08-04T03:11:00.610Z,18.86
2022-08-04T03:12:00.602Z,18.84
2022-08-04T03:13:00.575Z,18.89
2022-08-04T03:14:00.567Z,18.78
2022-08-04T03:15:00.557Z,18.86
2022-08-04T03:16:00.543Z,18.89
2022-08-04T03:17:00.527Z,18.87
2022-08-04T03:18:00.523Z,18.84
2022-08-04T03:19:00.504Z,18.79
2022-08-04T03:20:00.487Z,18.93
2022-08-04T03:21:00.470Z,18.90
2022-08-04T03:22:00.466Z,18.87
2022-08-04T03:23:12.968Z,18.91
2022-08-04T03:24:01.458Z,19.01
2022-08-04T03:25:00.416Z,19.06
2022-08-04T03:26:00.405Z,19.01
2022-08-04T03:27:00.390Z,19.06
2022-08-04T03:28:00.377Z,19.20
2022-08-04T03:29:00.359Z,19.12
2022-08-04T03:30:00.359Z,19.09
2022-08-04T03:31:00.337Z,19.02
2022-08-04T03:32:00.333Z,19.09
2022-08-04T03:33:00.316Z,19.07
2022-08-04T03:34:00.309Z,19.01
2022-08-04T03:35:00.291Z,18.96
2022-08-04T03:36:00.276Z,19.01
2022-08-04T03:37:00.258Z,18.86
2022-08-04T03:38:00.244Z,18.82
2022-08-04T03:39:00.317Z,18.76
2022-08-04T03:40:00.215Z,18.79
2022-08-04T03:41:00.202Z,18.79
2022-08-04T03:42:04.338Z,18.78
2022-08-04T03:43:00.177Z,18.75
2022-08-04T03:44:00.252Z,18.69
2022-08-04T03:45:00.252Z,18.71
2022-08-04T03:46:00.136Z,18.74
2022-08-04T03:47:00.122Z,18.72
2022-08-04T03:48:00.108Z,18.69
2022-08-04T03:49:00.092Z,18.53
2022-08-04T03:50:00.094Z,18.53
2022-08-04T03:51:00.072Z,18.51
2022-08-04T03:52:00.052Z,18.47
2022-08-04T03:53:00.037Z,18.44
2022-08-04T03:54:00.025Z,18.51
2022-08-04T03:55:00.010Z,18.59
2022-08-04T03:56:00.004Z,18.47
2022-08-04T03:56:59.990Z,18.54
2022-08-04T03:57:59.981Z,18.56
2022-08-04T03:58:59.959Z,18.68
2022-08-04T03:59:59.952Z,18.66
2022-08-04T04:00:59.934Z,18.64
2022-08-04T04:02:01.940Z,18.66
2022-08-04T04:02:59.906Z,18.57
2022-08-04T04:03:59.893Z,18.72
2022-08-04T04:04:59.881Z,18.68
2022-08-04T04:06:02.339Z,18.68
2022-08-04T04:06:59.849Z,18.66
2022-08-04T04:08:01.981Z,18.72
2022-08-04T04:08:59.821Z,18.71
2022-08-04T04:10:06.495Z,18.62
2022-08-04T04:10:59.794Z,18.64
2022-08-04T04:11:59.811Z,18.60
2022-08-04T04:12:59.774Z,18.66
2022-08-04T04:13:59.776Z,18.64
2022-08-04T04:14:59.745Z,18.75
2022-08-04T04:15:59.729Z,18.65
2022-08-04T04:16:59.713Z,18.64
2022-08-04T04:17:59.705Z,18.65
2022-08-04T04:18:59.685Z,18.62
2022-08-04T04:19:59.683Z,18.57
2022-08-04T04:20:59.671Z,18.44
2022-08-04T04:21:59.653Z,18.38
2022-08-04T04:22:59.653Z,18.36
2022-08-04T04:23:59.628Z,18.35
2022-08-04T04:24:59.610Z,18.47
2022-08-04T04:25:59.602Z,18.35
2022-08-04T04:26:59.595Z,18.31
2022-08-04T04:28:45.795Z,18.29
2022-08-04T04:29:03.260Z,18.41
2022-08-04T04:29:59.541Z,18.42
2022-08-04T04:30:59.526Z,18.39
2022-08-04T04:31:59.545Z,18.42
2022-08-04T04:32:59.511Z,18.44
2022-08-04T04:33:59.494Z,18.41
2022-08-04T04:34:59.475Z,18.35
2022-08-04T04:35:59.472Z,18.38
2022-08-04T04:36:59.449Z,18.35
2022-08-04T04:37:59.440Z,18.39
2022-08-04T04:38:59.486Z,18.34
2022-08-04T04:39:59.419Z,18.42
2022-08-04T04:40:59.398Z,18.49
2022-08-04T04:41:59.383Z,18.50
2022-08-04T04:42:59.370Z,18.44
2022-08-04T04:43:59.359Z,18.42
2022-08-04T04:44:59.338Z,18.49
2022-08-04T04:45:59.332Z,18.42
2022-08-04T04:46:59.310Z,18.38
2022-08-04T04:48:08.954Z,18.44
2022-08-04T04:48:59.288Z,18.44
2022-08-04T04:49:59.479Z,18.38
2022-08-04T04:50:59.259Z,18.39
2022-08-04T04:51:59.248Z,18.54
2022-08-04T04:52:59.232Z,18.44
2022-08-04T04:54:00.572Z,18.51
2022-08-04T04:54:59.202Z,18.53
2022-08-04T04:55:59.193Z,18.51
2022-08-04T04:56:59.175Z,18.57
2022-08-04T04:57:59.162Z,18.60
2022-08-04T04:58:59.147Z,18.72
2022-08-04T04:59:59.141Z,18.72
2022-08-04T05:00:59.125Z,18.76
2022-08-04T05:01:59.118Z,18.75
2022-08-04T05:03:01.646Z,18.72
2022-08-04T05:03:59.093Z,18.71
2022-08-04T05:04:59.069Z,18.78
2022-08-04T05:05:59.061Z,18.74
2022-08-04T05:06:59.055Z,18.82
2022-08-04T05:07:59.031Z,18.86
2022-08-04T05:08:59.013Z,18.78
2022-08-04T05:09:59.003Z,18.87
2022-08-04T05:10:58.986Z,18.93
2022-08-04T05:11:58.976Z,18.93
2022-08-04T05:14:35.308Z,18.91
2022-08-04T05:14:38.055Z,18.99
2022-08-04T05:14:58.933Z,18.97
2022-08-04T05:15:58.928Z,19.05
2022-08-04T05:16:58.908Z,19.17
2022-08-04T05:17:58.904Z,19.07
2022-08-04T05:18:58.887Z,19.23
2022-08-04T05:19:58.868Z,19.32
2022-08-04T05:20:58.860Z,19.30
2022-08-04T05:21:58.843Z,19.45
2022-08-04T05:22:58.836Z,19.52
2022-08-04T05:23:58.813Z,19.50
2022-08-04T05:24:58.802Z,19.47
2022-08-04T05:26:00.144Z,19.68
2022-08-04T05:26:58.782Z,19.67
2022-08-04T05:27:58.759Z,19.75
2022-08-04T05:28:58.752Z,19.71
2022-08-04T05:29:58.732Z,19.82
2022-08-04T05:30:58.722Z,19.80
2022-08-04T05:31:58.707Z,19.86
2022-08-04T05:32:59.109Z,20.02
2022-08-04T05:33:58.689Z,20.10
2022-08-04T05:34:58.692Z,20.12
2022-08-04T05:36:17.730Z,20.12
2022-08-04T05:36:59.665Z,20.23
2022-08-04T05:38:01.227Z,20.19
2022-08-04T05:38:58.653Z,20.26
2022-08-04T05:39:58.596Z,20.35
2022-08-04T05:40:58.588Z,20.50
2022-08-04T05:41:58.586Z,20.42
2022-08-04T05:42:58.564Z,20.50
2022-08-04T05:43:58.542Z,20.50
2022-08-04T05:44:58.534Z,20.68
2022-08-04T05:45:58.517Z,20.69
2022-08-04T05:46:58.509Z,20.76
2022-08-04T05:47:58.492Z,20.82
2022-08-04T05:48:58.489Z,20.87
2022-08-04T05:50:01.297Z,20.93
2022-08-04T05:51:00.943Z,21.01
2022-08-04T05:51:58.444Z,21.09
2022-08-04T05:53:01.481Z,21.21
2022-08-04T05:53:58.410Z,21.03
2022-08-04T05:54:58.401Z,21.28
2022-08-04T05:55:59.978Z,21.33
2022-08-04T05:56:58.382Z,21.42
2022-08-04T05:57:58.356Z,21.46
2022-08-04T05:58:58.347Z,21.58
2022-08-04T05:59:58.335Z,21.58
2022-08-04T06:00:58.323Z,21.73
2022-08-04T06:01:58.407Z,21.74
2022-08-04T06:02:58.297Z,21.79
2022-08-04T06:03:58.279Z,21.85
2022-08-04T06:04:58.266Z,21.85
2022-08-04T06:05:58.247Z,21.90
2022-08-04T06:06:58.247Z,22.02
2022-08-04T06:08:12.247Z,22.01
2022-08-04T06:08:58.214Z,22.14
2022-08-04T06:09:58.198Z,22.26
2022-08-04T06:10:58.190Z,22.26
2022-08-04T06:12:04.003Z,22.23
2022-08-04T06:12:58.168Z,22.30
2022-08-04T06:13:58.150Z,22.30
2022-08-04T06:14:59.492Z,22.39
2022-08-04T06:15:58.120Z,22.45
2022-08-04T06:16:58.116Z,22.46
2022-08-04T06:18:35.285Z,22.48
2022-08-04T06:20:00.788Z,22.54
2022-08-04T06:20:20.008Z,22.56
2022-08-04T06:20:59.070Z,22.59
2022-08-04T06:21:58.042Z,22.61
2022-08-04T06:22:58.030Z,22.74
2022-08-04T06:24:04.274Z,22.86
2022-08-04T06:24:58.001Z,23.09
2022-08-04T06:25:57.985Z,23.26
2022-08-04T06:26:57.977Z,23.35
2022-08-04T06:27:57.957Z,23.42
2022-08-04T06:28:57.945Z,23.59
2022-08-04T06:29:57.930Z,23.78
2022-08-04T06:30:57.920Z,23.86
2022-08-04T06:32:31.026Z,23.96
2022-08-04T06:33:03.590Z,24.18
2022-08-04T06:33:57.882Z,24.29
2022-08-04T06:34:57.868Z,24.29
2022-08-04T06:35:57.862Z,24.44
2022-08-04T06:36:57.849Z,24.55
2022-08-04T06:38:00.976Z,24.56
2022-08-04T06:38:58.595Z,24.56
2022-08-04T06:39:57.815Z,24.56
2022-08-04T06:40:57.793Z,24.61
2022-08-04T06:42:22.161Z,24.84
2022-08-04T06:42:57.764Z,24.75
2022-08-04T06:43:57.744Z,24.80
2022-08-04T06:44:57.735Z,24.68
2022-08-04T06:45:57.719Z,24.63
2022-08-04T06:46:57.709Z,24.53
2022-08-04T06:47:57.696Z,24.56
2022-08-04T06:48:57.691Z,24.55
2022-08-04T06:51:24.918Z,24.46
2022-08-04T06:51:28.656Z,24.41
2022-08-04T06:51:58.668Z,24.37
2022-08-04T06:52:57.638Z,24.37
2022-08-04T06:53:57.630Z,24.51
2022-08-04T06:54:57.611Z,24.60
2022-08-04T06:55:57.598Z,24.59
2022-08-04T06:56:57.579Z,24.66
2022-08-04T06:58:02.674Z,24.71
2022-08-04T06:58:57.552Z,24.86
2022-08-04T06:59:57.541Z,24.98
2022-08-04T07:00:57.543Z,25.12
2022-08-04T07:01:57.554Z,25.35
2022-08-04T07:02:57.515Z,25.41
2022-08-04T07:03:57.493Z,25.48
2022-08-04T07:04:57.477Z,25.46
2022-08-04T07:05:57.474Z,25.38
2022-08-04T07:06:57.452Z,25.44
2022-08-04T07:07:58.637Z,25.49
2022-08-04T07:08:57.426Z,25.64
2022-08-04T07:09:57.405Z,25.98
2022-08-04T07:10:57.396Z,26.31
2022-08-04T07:11:57.379Z,26.31
2022-08-04T07:12:57.368Z,26.23
2022-08-04T07:13:57.352Z,26.09
2022-08-04T07:14:57.341Z,25.86
2022-08-04T07:15:57.331Z,26.01
2022-08-04T07:16:57.437Z,26.06
2022-08-04T07:17:57.306Z,26.44
2022-08-04T07:18:57.293Z,26.71
2022-08-04T07:19:57.283Z,26.91
2022-08-04T07:20:57.269Z,27.09
2022-08-04T07:22:15.917Z,27.18
2022-08-04T07:22:58.264Z,27.23
2022-08-04T07:23:57.223Z,27.13
2022-08-04T07:24:57.211Z,27.39
2022-08-04T07:26:11.783Z,27.16
2022-08-04T07:26:57.217Z,27.27
2022-08-04T07:27:57.173Z,27.23
2022-08-04T07:28:57.169Z,27.12
2022-08-04T07:29:57.149Z,27.16
2022-08-04T07:30:57.143Z,27.42
2022-08-04T07:31:57.121Z,27.52
2022-08-04T07:32:57.113Z,27.66
2022-08-04T07:34:16.520Z,27.55
2022-08-04T07:34:57.081Z,27.53
2022-08-04T07:36:08.381Z,27.77
2022-08-04T07:36:57.052Z,27.76
2022-08-04T07:37:57.039Z,27.71
2022-08-04T07:38:57.056Z,27.65
2022-08-04T07:39:57.114Z,27.53
2022-08-04T07:40:57.010Z,27.59
2022-08-04T07:41:56.993Z,27.77
2022-08-04T07:42:56.983Z,27.96
2022-08-04T07:43:56.967Z,28.35
2022-08-04T07:44:56.956Z,28.83
2022-08-04T07:45:56.943Z,29.20
2022-08-04T07:46:56.930Z,29.62
2022-08-04T07:48:04.647Z,30.07
2022-08-04T07:48:57.919Z,30.25
2022-08-04T07:49:58.113Z,30.36
2022-08-04T07:50:56.875Z,30.45
2022-08-04T07:51:56.859Z,30.60
2022-08-04T07:53:22.357Z,30.53
2022-08-04T07:53:56.916Z,30.70
2022-08-04T07:54:56.824Z,30.68
2022-08-04T07:55:56.910Z,31.15
2022-08-04T07:56:56.802Z,31.56
2022-08-04T07:57:56.795Z,31.87
2022-08-04T07:58:56.776Z,31.65
2022-08-04T07:59:56.763Z,31.90
2022-08-04T08:00:56.750Z,31.72
2022-08-04T08:01:56.746Z,31.62
2022-08-04T08:02:56.735Z,31.95
2022-08-04T08:03:56.795Z,31.97
2022-08-04T08:04:56.698Z,32.10
2022-08-04T08:06:31.424Z,32.22
2022-08-04T08:06:56.670Z,32.59
2022-08-04T08:07:56.663Z,32.78
2022-08-04T08:08:56.654Z,32.47
2022-08-04T08:09:56.637Z,32.77
2022-08-04T08:10:56.623Z,32.77
2022-08-04T08:12:35.822Z,33.07
2022-08-04T08:12:56.595Z,33.38
2022-08-04T08:13:56.581Z,33.59
2022-08-04T08:14:56.573Z,33.90
2022-08-04T08:15:56.560Z,34.18
2022-08-04T08:16:56.551Z,34.11
2022-08-04T08:17:59.646Z,34.33
2022-08-04T08:18:56.522Z,34.64
2022-08-04T08:19:56.512Z,34.83
2022-08-04T08:20:56.514Z,34.91
2022-08-04T08:21:58.497Z,35.03
2022-08-04T08:22:56.488Z,35.13
2022-08-04T08:23:56.459Z,35.27
2022-08-04T08:24:56.453Z,35.50
2022-08-04T08:25:56.435Z,35.43
2022-08-04T08:26:56.530Z,35.43
2022-08-04T08:27:56.809Z,35.62
2022-08-04T08:28:56.411Z,35.37
2022-08-04T08:29:56.392Z,35.25
2022-08-04T08:30:56.385Z,35.31
2022-08-04T08:31:59.547Z,35.65
2022-08-04T08:32:56.359Z,35.80
2022-08-04T08:33:56.346Z,36.12
2022-08-04T08:34:56.332Z,36.30
2022-08-04T08:35:56.339Z,36.68
2022-08-04T08:36:56.314Z,36.52
2022-08-04T08:37:56.306Z,36.74
2022-08-04T08:38:56.312Z,36.74
2022-08-04T08:39:56.313Z,36.35
2022-08-04T08:40:56.308Z,36.56
2022-08-04T08:41:56.254Z,36.84
2022-08-04T08:42:56.245Z,37.20
2022-08-04T08:44:03.771Z,37.66
2022-08-04T08:44:58.098Z,37.73
2022-08-04T08:45:56.207Z,37.85
2022-08-04T08:46:56.199Z,38.07
2022-08-04T08:48:05.801Z,38.26
2022-08-04T08:48:56.174Z,38.67
2022-08-04T08:50:02.188Z,38.90
2022-08-04T08:50:57.182Z,39.24
2022-08-04T08:51:56.147Z,39.43
2022-08-04T08:53:01.699Z,39.72
2022-08-04T08:53:56.121Z,39.90
2022-08-04T08:54:56.113Z,39.99
2022-08-04T08:55:56.097Z,39.97
2022-08-04T08:56:56.085Z,39.88
2022-08-04T08:58:00.137Z,39.27
2022-08-04T08:58:56.066Z,39.34
2022-08-04T08:59:56.044Z,38.93
2022-08-04T09:00:56.048Z,38.71
2022-08-04T09:01:56.107Z,38.41
2022-08-04T09:03:04.790Z,38.07
2022-08-04T09:03:57.024Z,38.14
2022-08-04T09:04:55.999Z,38.12
2022-08-04T09:05:55.992Z,37.81
2022-08-04T09:06:55.980Z,37.96
2022-08-04T09:07:55.975Z,38.25
2022-08-04T09:08:55.960Z,38.44
2022-08-04T09:09:55.949Z,38.70
2022-08-04T09:10:55.985Z,38.45
2022-08-04T09:11:55.922Z,38.71
2022-08-04T09:12:55.914Z,38.60
2022-08-04T09:13:55.913Z,38.72
2022-08-04T09:14:55.893Z,39.05
2022-08-04T09:15:55.883Z,39.51
2022-08-04T09:16:55.881Z,39.72
2022-08-04T09:17:55.859Z,40.19
2022-08-04T09:18:55.855Z,39.61
2022-08-04T09:19:55.838Z,39.91
2022-08-04T09:20:55.830Z,40.25
2022-08-04T09:21:55.816Z,40.71
2022-08-04T09:22:55.815Z,40.64
2022-08-04T09:23:55.795Z,40.42
2022-08-04T09:24:55.786Z,39.69
2022-08-04T09:25:55.771Z,39.88
2022-08-04T09:27:00.101Z,39.27
2022-08-04T09:27:55.757Z,39.27
2022-08-04T09:28:55.760Z,39.66
2022-08-04T09:29:55.739Z,39.88
2022-08-04T09:30:55.763Z,39.91
2022-08-04T09:32:06.669Z,39.70
2022-08-04T09:32:55.705Z,39.92
2022-08-04T09:33:55.685Z,40.16
2022-08-04T09:35:03.713Z,39.75
2022-08-04T09:35:55.675Z,39.39
2022-08-04T09:36:55.655Z,39.53
2022-08-04T09:37:55.659Z,40.00
2022-08-04T09:38:55.659Z,40.46
2022-08-04T09:39:55.636Z,41.01
2022-08-04T09:40:57.808Z,40.48
2022-08-04T09:41:55.615Z,40.38
2022-08-04T09:42:55.610Z,40.68
2022-08-04T09:43:58.950Z,41.00
2022-08-04T09:45:04.915Z,41.36
2022-08-04T09:45:56.625Z,41.73
2022-08-04T09:46:55.563Z,41.96
2022-08-04T09:47:55.573Z,41.82
2022-08-04T09:48:55.540Z,41.55
2022-08-04T09:49:55.534Z,40.67
2022-08-04T09:50:55.517Z,39.65
2022-08-04T09:51:58.419Z,39.35
2022-08-04T09:52:55.500Z,39.90
2022-08-04T09:53:55.489Z,40.54
2022-08-04T09:54:55.488Z,40.95
2022-08-04T09:55:58.835Z,41.38
2022-08-04T09:56:55.713Z,41.62
2022-08-04T09:57:55.450Z,41.95
2022-08-04T09:58:55.442Z,41.89
2022-08-04T09:59:55.440Z,42.05
2022-08-04T10:00:55.432Z,42.34
2022-08-04T10:01:59.021Z,42.45
2022-08-04T10:02:55.490Z,42.19
2022-08-04T10:03:55.390Z,42.36
2022-08-04T10:04:55.382Z,42.55
2022-08-04T10:05:55.373Z,42.70
2022-08-04T10:06:55.360Z,42.77
2022-08-04T10:07:59.552Z,42.70
2022-08-04T10:08:57.266Z,42.94
2022-08-04T10:09:55.354Z,42.95
2022-08-04T10:10:55.325Z,42.89
2022-08-04T10:11:56.313Z,43.16
2022-08-04T10:12:55.301Z,43.25
2022-08-04T10:13:55.294Z,43.20
2022-08-04T10:14:55.277Z,43.20
2022-08-04T10:15:55.274Z,43.16
2022-08-04T10:16:55.260Z,43.33
2022-08-04T10:17:55.260Z,43.49
2022-08-04T10:18:55.237Z,43.63
2022-08-04T10:19:55.233Z,43.63
2022-08-04T10:20:59.010Z,43.82
2022-08-04T10:22:27.431Z,43.84
2022-08-04T10:23:11.253Z,43.90
2022-08-04T10:23:59.967Z,43.44
2022-08-04T10:24:55.182Z,43.34
2022-08-04T10:26:05.966Z,42.67
2022-08-04T10:26:57.593Z,42.02
2022-08-04T10:27:55.161Z,42.02
2022-08-04T10:28:55.143Z,42.21
2022-08-04T10:29:55.133Z,42.38
2022-08-04T10:30:55.128Z,42.41
2022-08-04T10:31:55.133Z,42.43
2022-08-04T10:32:55.110Z,42.49
2022-08-04T10:33:55.114Z,42.58
2022-08-04T10:34:55.088Z,42.67
2022-08-04T10:35:55.090Z,42.71
2022-08-04T10:36:55.069Z,42.82
2022-08-04T10:38:01.679Z,43.08
2022-08-04T10:38:55.103Z,43.25
2022-08-04T10:39:55.082Z,43.50
2022-08-04T10:40:55.036Z,43.14
2022-08-04T10:41:55.032Z,43.11
2022-08-04T10:42:55.009Z,42.77
2022-08-04T10:43:55.005Z,42.24
2022-08-04T10:44:57.673Z,42.21
2022-08-04T10:45:57.788Z,41.80
2022-08-04T10:46:54.971Z,41.96
2022-08-04T10:47:54.977Z,42.02
2022-08-04T10:48:54.959Z,42.31
2022-08-04T10:49:54.951Z,42.34
2022-08-04T10:50:57.193Z,42.68
2022-08-04T10:51:58.642Z,42.86
2022-08-04T10:52:54.919Z,42.07
2022-08-04T10:53:54.905Z,41.90
2022-08-04T10:54:54.894Z,41.90
2022-08-04T10:56:05.485Z,41.44
2022-08-04T10:56:56.942Z,41.60
2022-08-04T10:57:54.889Z,42.05
2022-08-04T10:58:54.857Z,42.55
2022-08-04T10:59:59.061Z,42.92
2022-08-04T11:00:54.839Z,43.08
2022-08-04T11:02:03.382Z,43.40
2022-08-04T11:02:54.892Z,43.48
2022-08-04T11:03:54.826Z,43.68
2022-08-04T11:04:54.803Z,43.98
2022-08-04T11:05:54.796Z,44.25
2022-08-04T11:06:54.784Z,44.03
2022-08-04T11:07:54.792Z,44.09
2022-08-04T11:08:54.759Z,44.32
2022-08-04T11:09:54.755Z,44.35
2022-08-04T11:10:54.741Z,44.53
2022-08-04T11:11:56.846Z,44.02
2022-08-04T11:12:54.733Z,43.91
2022-08-04T11:13:54.724Z,43.96
2022-08-04T11:14:54.718Z,43.49
2022-08-04T11:15:54.699Z,43.11
2022-08-04T11:16:54.692Z,42.96
2022-08-04T11:17:54.681Z,42.12
2022-08-04T11:18:54.671Z,42.50
2022-08-04T11:20:03.466Z,42.67
2022-08-04T11:20:54.672Z,42.96
2022-08-04T11:21:54.664Z,43.03
2022-08-04T11:22:54.629Z,43.33
2022-08-04T11:23:54.648Z,43.41
2022-08-04T11:24:54.620Z,43.53
2022-08-04T11:25:54.610Z,43.59
2022-08-04T11:26:54.608Z,43.63
2022-08-04T11:27:54.598Z,43.63
2022-08-04T11:29:03.080Z,43.68
2022-08-04T11:29:54.574Z,43.91
2022-08-04T11:30:54.566Z,44.09
2022-08-04T11:31:54.569Z,44.23
2022-08-04T11:32:54.558Z,44.43
2022-08-04T11:33:54.540Z,44.64
2022-08-04T11:34:54.523Z,44.59
2022-08-04T11:35:54.519Z,44.44
2022-08-04T11:36:54.511Z,43.43
2022-08-04T11:37:54.498Z,42.79
2022-08-04T11:38:54.548Z,42.68
2022-08-04T11:39:54.492Z,42.77
2022-08-04T11:41:02.078Z,42.71
2022-08-04T11:41:55.490Z,42.95
2022-08-04T11:42:54.474Z,43.10
2022-08-04T11:44:01.166Z,43.44
2022-08-04T11:44:54.432Z,43.70
2022-08-04T11:45:54.428Z,43.98
2022-08-04T11:46:54.421Z,43.96
2022-08-04T11:47:54.419Z,43.89
2022-08-04T11:48:54.407Z,43.87
2022-08-04T11:49:57.174Z,43.43
2022-08-04T11:50:54.382Z,43.53
2022-08-04T11:51:54.390Z,43.45
2022-08-04T11:52:54.364Z,43.60
2022-08-04T11:53:54.363Z,43.71
2022-08-04T11:54:54.628Z,43.41
2022-08-04T11:56:09.463Z,42.79
2022-08-04T11:56:55.360Z,42.76
2022-08-04T11:57:54.560Z,42.73
2022-08-04T11:58:54.317Z,42.48
2022-08-04T11:59:54.329Z,42.61
2022-08-04T12:00:54.306Z,42.26
2022-08-04T12:01:54.297Z,41.95
2022-08-04T12:02:54.291Z,41.97
2022-08-04T12:04:03.537Z,42.00
2022-08-04T12:04:54.262Z,42.21
2022-08-04T12:05:54.255Z,42.48
2022-08-04T12:07:21.318Z,42.48
2022-08-04T12:07:55.265Z,42.64
2022-08-04T12:08:54.221Z,42.75
2022-08-04T12:09:54.355Z,42.49
2022-08-04T12:10:54.218Z,42.26
2022-08-04T12:11:54.199Z,42.07
2022-08-04T12:12:54.281Z,41.65
2022-08-04T12:13:58.757Z,41.33
2022-08-04T12:14:54.174Z,41.31
2022-08-04T12:15:54.160Z,41.28
2022-08-04T12:16:54.156Z,41.42
2022-08-04T12:17:54.180Z,41.39
2022-08-04T12:18:54.139Z,41.54
2022-08-04T12:20:04.154Z,41.82
2022-08-04T12:20:54.107Z,41.96
2022-08-04T12:21:55.966Z,41.96
2022-08-04T12:22:54.094Z,41.72
2022-08-04T12:24:00.440Z,41.47
2022-08-04T12:24:54.069Z,41.48
2022-08-04T12:25:54.086Z,41.31
2022-08-04T12:26:54.052Z,41.28
2022-08-04T12:27:54.038Z,41.29
2022-08-04T12:29:09.574Z,41.10
2022-08-04T12:31:01.645Z,41.00
2022-08-04T12:31:02.221Z,40.95
2022-08-04T12:31:53.993Z,41.05
2022-08-04T12:32:53.985Z,41.28
2022-08-04T12:34:05.239Z,41.35
2022-08-04T12:34:53.962Z,41.54
2022-08-04T12:36:10.482Z,41.62
2022-08-04T12:36:53.947Z,41.02
2022-08-04T12:37:54.069Z,40.45
2022-08-04T12:38:54.049Z,39.97
2022-08-04T12:40:29.152Z,39.80
2022-08-04T12:40:55.051Z,39.84
2022-08-04T12:41:53.908Z,39.76
2022-08-04T12:42:56.027Z,39.56
2022-08-04T12:43:53.874Z,39.61
2022-08-04T12:44:53.866Z,39.78
2022-08-04T12:45:53.871Z,39.99
2022-08-04T12:46:53.848Z,40.21
2022-08-04T12:47:53.952Z,40.25
2022-08-04T12:48:53.824Z,40.48
2022-08-04T12:50:00.303Z,40.61
2022-08-04T12:50:53.812Z,40.91
2022-08-04T12:52:07.507Z,40.94